x

8419317 - Wells, Me (welm1) Weather Station

1:54 - Wed 26th Jul 2017 All times are EDT. -4 hours from GMT.

  • Wind
    3mph, 6mph gusts
  • Sea Temp 64°f
  • Ar Temp 59°f
  • Sea Pressure 1022.4mb
  • 8419317 - Wells, Me
  • 8419317 - Wells, Me

More Historic Weather Station data

Upgrade to MSW Pro to gain access to the past 30 days of data for over 8000 Wavebouys and Weather Stations around the globe.

Join Pro

Comparision Forecast

View Surf forecast
   
Qua 07/26 1:54 3 6 mph 1022.4mb 64f 59f
1:48 3 5 mph 1022.3mb - -
1:42 3 8 mph 1022.3mb - -
1:36 5 7 mph 1022.4mb - -
1:30 6 8 mph 1022.4mb 64f 59f
1:24 6 8 mph 1022.4mb 64f 59f
1:18 7 10 mph 1022.5mb 64f 59f
1:12 7 11 mph 1022.5mb 64f 59f
1:06 8 11 mph 1022.5mb 64f 59f
1:00 7 10 mph 1022.5mb 64f 59f
12:54 6 11 mph 1022.5mb 64f 59f
12:48 6 9 mph 1022.6mb 64f 59f
12:42 5 8 mph 1022.5mb 64f 59f
12:36 2 5 mph 1022.5mb 64f 59f
12:30 2 5 mph 1022.5mb 64f 59f
12:24 2 5 mph 1022.4mb 64f 59f
12:18 1 6 mph 1022.4mb 64f 60f
12:12 5 8 mph 1022.4mb 64f 60f
12:06 5 9 mph 1022.5mb 64f 60f
12:00 7 9 mph 1022.5mb 64f 60f
Ter 07/25 11:54 6 8 mph 1022.5mb 64f 60f
11:48 5 8 mph 1022.5mb 64f 60f
11:42 2 5 mph 1022.6mb 64f 59f
11:36  -  3 mph 1022.6mb 64f 59f
11:30 2 6 mph 1022.6mb 64f 59f
11:24 2 5 mph 1022.6mb 64f 59f
11:18 2 3 mph 1022.6mb 64f 58f
11:12 1 2 mph 1022.6mb 64f 58f
11:06 2 3 mph 1022.6mb 64f 58f
11:00 1 2 mph 1022.7mb 64f 58f
10:54 2 3 mph 1022.7mb 64f 58f
10:48 3 3 mph 1022.7mb 64f 58f
10:42 2 3 mph 1022.5mb 64f 59f
10:36 1 3 mph 1022.5mb 64f 59f
10:30 3 3 mph 1022.4mb 64f 59f
10:24 2 3 mph 1022.5mb 65f 59f
10:18 2 3 mph 1022.5mb 65f 59f
10:12 2 3 mph 1022.6mb 66f 59f
10:06 1 3 mph 1022.6mb 67f 60f
10:00 2 5 mph 1022.5mb 68f 60f
9:48 3 5 mph 1022.5mb 68f 60f
9:42 3 6 mph 1022.4mb 68f 60f
9:36 6 6 mph 1022.3mb 68f 60f
9:30 5 5 mph 1022.2mb 68f 60f
9:24 3 5 mph 1022.2mb 68f 61f
9:18 3 5 mph 1022.2mb 69f 61f
9:12 5 5 mph 1022.3mb 69f 61f
9:06 5 6 mph 1022.3mb 69f 61f
9:00 5 7 mph 1022.2mb 69f 61f
8:48 6 6 mph 1022.1mb 68f 62f
8:42 5 6 mph 1022.1mb 68f 61f
8:36 5 6 mph 1022.1mb 68f 62f
8:30 6 6 mph 1022mb 68f 62f
8:24 5 7 mph 1022mb 68f 62f
8:18 6 7 mph 1022mb 68f 62f
8:12 5 6 mph 1022mb 68f 63f
8:06 6 8 mph 1021.9mb 68f 63f
8:00 7 8 mph 1021.8mb 68f 64f
7:48 8 9 mph 1021.8mb 68f 64f
7:42 8 11 mph 1021.7mb 67f 64f
7:36 10 13 mph 1021.7mb 67f 64f
7:30 10 14 mph 1021.8mb 67f 64f
7:24 10 14 mph 1021.8mb 67f 64f
7:18 10 14 mph 1021.8mb 67f 64f
7:12 11 14 mph 1021.7mb 67f 64f
7:06 11 14 mph 1021.6mb 67f 64f
7:00 11 15 mph 1021.6mb 67f 64f
6:54 14 15 mph 1021.7mb 67f 64f
6:48 14 15 mph 1021.6mb 67f 64f
6:42 13 14 mph 1021.6mb 67f 64f
6:36 13 15 mph 1021.4mb 67f 64f
6:30 11 14 mph 1021.4mb 67f 65f
6:24 13 15 mph 1021.4mb 66f 65f
6:18 11 13 mph 1021.2mb 66f 65f
6:12 10 14 mph 1021.1mb 66f 65f
6:06 10 13 mph 1021.2mb 66f 65f
6:00 10 13 mph 1021.2mb 66f 65f
5:54 11 13 mph 1021.2mb 66f 65f
5:48 11 13 mph 1021.2mb 66f 65f
5:42 10 11 mph 1021.1mb 65f 65f
5:36 8 11 mph 1021.1mb 65f 65f
5:30 10 13 mph 1021.2mb 65f 65f
5:24 10 13 mph 1021.1mb 65f 65f
5:18 10 11 mph 1021.1mb 65f 65f
5:12 10 11 mph 1021.1mb 65f 65f
5:06 9 11 mph 1021.1mb 65f 65f
5:00 9 10 mph 1021.1mb 65f 65f
4:54 9 10 mph 1021.1mb 66f 65f
4:48 8 11 mph 1021.1mb 67f 65f
4:42 9 10 mph 1021.1mb 67f 65f
4:36 9 10 mph 1021.1mb 67f 64f
4:30 9 10 mph 1021.1mb 66f 64f
4:24 10 11 mph 1021mb 66f 64f
4:18 9 13 mph 1021mb 66f 64f
4:12 9 11 mph 1021mb 66f 64f
4:06 9 10 mph 1021mb 66f 64f
4:00 9 9 mph 1020.9mb 66f 64f
3:54 7 9 mph 1020.9mb 66f 65f
3:48 8 9 mph 1020.9mb 66f 65f
3:42 7 8 mph 1020.9mb 66f 65f
3:36 7 8 mph 1020.9mb 65f 65f
3:30 6 8 mph 1020.8mb 65f 65f
3:24 6 8 mph 1020.9mb 65f 65f
3:18 6 7 mph 1020.8mb 65f 65f
3:12 6 7 mph 1020.8mb 65f 65f
3:06 6 8 mph 1020.8mb 65f 64f
3:00 6 8 mph 1020.8mb 65f 64f
2:54 7 8 mph 1020.8mb 65f 65f
2:48 6 7 mph 1020.8mb 65f 65f
2:42 6 8 mph 1020.7mb 65f 65f
2:36 6 9 mph 1020.7mb 65f 65f
2:30 7 9 mph 1020.7mb 65f 65f
2:24 7 9 mph 1020.7mb 64f 65f
2:18 8 10 mph 1020.7mb 64f 65f
2:12 6 10 mph 1020.7mb 64f 64f
2:06 8 9 mph 1020.6mb 64f 64f
2:00 8 11 mph 1020.6mb 64f 64f
1:54 8 10 mph 1020.6mb 64f 64f
1:48 7 9 mph 1020.7mb 64f 63f
1:42 8 10 mph 1020.6mb 64f 63f
1:36 6 10 mph 1020.6mb 64f 63f
1:30 7 11 mph 1020.6mb 64f 63f
1:24 10 13 mph 1020.6mb 64f 62f
1:18 11 14 mph 1020.5mb 64f 62f
1:12 11 14 mph 1020.5mb 64f 62f
1:06 13 16 mph 1020.5mb 64f 62f
1:00 14 17 mph 1020.5mb 64f 62f
12:54 13 16 mph 1020.4mb 64f 63f
12:48 11 16 mph 1020.3mb 64f 62f
12:42 11 14 mph 1020.4mb 64f 62f
12:36 9 11 mph 1020.3mb 64f 62f
12:30 9 11 mph 1020.2mb 64f 62f
12:24 6 7 mph 1020.2mb 64f 63f
12:18 6 8 mph 1020.2mb 64f 63f
12:12 6 8 mph 1020.2mb 64f 63f
12:06 6 8 mph 1020.1mb 64f 63f
12:00 6 8 mph 1020.1mb 64f 63f
11:54 8 10 mph 1020.1mb 64f 62f
11:48 8 10 mph 1020.1mb 64f 62f
11:42 7 10 mph 1020.1mb 64f 62f
11:36 8 10 mph 1020mb 64f 62f
11:30 6 10 mph 1020mb 64f 62f
11:24 9 13 mph 1019.9mb 64f 62f
11:18 9 14 mph 1019.9mb 64f 62f
11:12 9 13 mph 1019.9mb 64f 62f
11:06 10 14 mph 1019.8mb 64f 62f
11:00 11 15 mph 1019.7mb 64f 62f
10:54 11 14 mph 1019.7mb 64f 62f
10:48 13 16 mph 1019.7mb 64f 62f
10:42 8 10 mph 1019.7mb 64f 62f
10:36 8 13 mph 1019.6mb 64f 62f
10:30 10 15 mph 1019.6mb 64f 62f
10:24 14 20 mph 1019.5mb 64f 62f
10:18 10 14 mph 1019.5mb 64f 62f
10:12 9 10 mph 1019.5mb 63f 61f
10:06 6 7 mph 1019.5mb 63f 61f
10:00 6 9 mph 1019.5mb 63f 61f
9:54 9 11 mph 1019.5mb 62f 60f
9:48 6 8 mph 1019.5mb 62f 60f
9:42 6 9 mph 1019.5mb 62f 60f
9:36 6 8 mph 1019.4mb 62f 60f
9:30 6 8 mph 1019.4mb 62f 60f
9:24 7 10 mph 1019.3mb 62f 59f
9:18 7 8 mph 1019.3mb 62f 59f
9:12 6 9 mph 1019.4mb 62f 59f
9:06 7 13 mph 1019.3mb 62f 60f
9:00 9 13 mph 1019.3mb 62f 59f
8:54 8 10 mph 1019.3mb 62f 59f
8:48 8 10 mph 1019.3mb 62f 59f
8:42 7 11 mph 1019.3mb 62f 59f
8:36 8 11 mph 1019.2mb 62f 59f
8:30 7 11 mph 1019.2mb 62f 59f
8:24 7 11 mph 1019.1mb 62f 59f
8:18 9 16 mph 1019.1mb 62f 59f
8:12 11 15 mph 1018.9mb 62f 59f
8:06 9 15 mph 1018.8mb 62f 59f
8:00 10 16 mph 1018.7mb 63f 59f
7:54 9 13 mph 1018.7mb 63f 58f
7:48 9 11 mph 1018.6mb 63f 58f
7:42 8 11 mph 1018.6mb 63f 58f
7:36 9 10 mph 1018.5mb 63f 58f
7:30 8 16 mph 1018.5mb 63f 58f
7:24 7 10 mph 1018.4mb 63f 58f
7:18 8 11 mph 1018.3mb 63f 58f
7:12 9 13 mph 1018.3mb 63f 58f
7:06 8 11 mph 1018.1mb 63f 57f
7:00 7 11 mph 1018.1mb 63f 57f
6:54 7 10 mph 1018.1mb 63f 57f
6:48 9 13 mph 1018mb 63f 57f
6:42 9 11 mph 1017.9mb 63f 57f
6:36 8 11 mph 1017.9mb 63f 57f
6:30 7 9 mph 1017.8mb 63f 57f
6:24 8 9 mph 1017.8mb 63f 57f
6:18 7 10 mph 1017.7mb 63f 57f
6:12 8 10 mph 1017.6mb 63f 57f
6:06 8 10 mph 1017.7mb 63f 57f
6:00 8 9 mph 1017.7mb 64f 57f
5:54 7 9 mph 1017.6mb 63f 56f
5:48 7 9 mph 1017.5mb 63f 56f
5:42 8 10 mph 1017.4mb 63f 56f
5:36 8 10 mph 1017.3mb 63f 56f
5:30 7 8 mph 1017.4mb 63f 56f
5:24 7 8 mph 1017.3mb 63f 56f
5:18 7 8 mph 1017.2mb 64f 56f
5:12 7 9 mph 1017.1mb 64f 56f
5:06 8 9 mph 1017mb 64f 56f
5:00 8 10 mph 1017mb 64f 56f
4:54 9 11 mph 1016.9mb 64f 57f
4:48 8 10 mph 1016.8mb 64f 56f
4:42 7 9 mph 1016.7mb 64f 56f
4:36 7 9 mph 1016.7mb 64f 56f
4:30 7 9 mph 1016.5mb 64f 56f
4:24 7 8 mph 1016.4mb 64f 56f
4:18 6 8 mph 1016.4mb 64f 56f
4:12 7 8 mph 1016.3mb 63f 56f
4:06 7 8 mph 1016.3mb 63f 56f
4:00 6 8 mph 1016.3mb 63f 56f
3:54 8 9 mph 1016.2mb 63f 56f
3:48 7 11 mph 1016mb 63f 56f
3:42 9 11 mph 1015.8mb 64f 56f
3:36 8 11 mph 1015.9mb 64f 56f
3:30 8 9 mph 1015.9mb 64f 56f
3:24 9 11 mph 1016.1mb 64f 56f
3:18 7 9 mph 1016mb 64f 56f
3:12 8 10 mph 1016mb 64f 56f
3:06 8 10 mph 1015.9mb 64f 56f
3:00 8 10 mph 1016mb 64f 56f
2:54 8 10 mph 1015.9mb 64f 56f
2:48 9 13 mph 1015.9mb - -
2:42 9 14 mph 1015.9mb - -
2:36 10 14 mph 1015.9mb - -
2:30 10 15 mph 1016mb 64f 56f
2:24 10 13 mph 1016.1mb 64f 56f
2:18 9 13 mph 1016.1mb 64f 56f
2:12 9 13 mph 1016.2mb 64f 56f
2:06 9 13 mph 1016.3mb 64f 56f
2:00 9 13 mph 1016.2mb 64f 56f
1:54 11 14 mph 1016.2mb 64f 56f
1:48 9 13 mph 1016.1mb 64f 56f
1:42 10 11 mph 1016mb 64f 56f
1:36 9 11 mph 1016.1mb 64f 56f
1:30 9 11 mph 1016.2mb 64f 56f
1:24 9 10 mph 1016.3mb 64f 56f
1:18 9 11 mph 1016.3mb 64f 56f
1:12 9 13 mph 1016.2mb 64f 56f
1:06 10 13 mph 1016.2mb 64f 56f
1:00 10 14 mph 1016.1mb 64f 56f
12:54 10 13 mph 1016mb 64f 56f
12:48 11 15 mph 1016.1mb 64f 56f
12:42 13 17 mph 1016.1mb 64f 56f
12:36 15 23 mph 1016mb 64f 56f
12:30 13 16 mph 1016.1mb 64f 56f
12:24 13 17 mph 1016mb 64f 56f
12:18 13 18 mph 1016mb 64f 56f
12:12 14 17 mph 1016.1mb 64f 56f
12:06 13 17 mph 1016mb 64f 56f
12:00 13 17 mph 1016mb 64f 56f
Seg 07/24 11:54 13 17 mph 1015.9mb 64f 56f
11:48 11 16 mph 1015.9mb 64f 56f
11:42 14 17 mph 1015.6mb 64f 56f
11:36 11 15 mph 1015.7mb 64f 56f
11:30 13 15 mph 1015.8mb 64f 55f
11:24 11 14 mph 1015.8mb 64f 55f
11:18 10 14 mph 1015.8mb 64f 55f
11:12 11 17 mph 1015.9mb 64f 56f
11:06 14 17 mph 1015.9mb 64f 55f
11:00 11 17 mph 1016mb 64f 55f
10:54 13 17 mph 1016mb 64f 56f
10:48 10 17 mph 1016mb 64f 56f
10:42 16 20 mph 1015.9mb 64f 56f
10:36 13 18 mph 1016mb 64f 56f
10:30 13 16 mph 1015.9mb 64f 56f
10:24 13 20 mph 1015.7mb 64f 55f
10:18 11 16 mph 1015.8mb 64f 55f
10:12 13 15 mph 1015.8mb 64f 55f
10:06 11 15 mph 1015.8mb 64f 55f
10:00 10 14 mph 1015.7mb 64f 55f
9:54 13 15 mph 1015.6mb 64f 55f
9:48 10 15 mph 1015.5mb 64f 55f
9:42 13 14 mph 1015.4mb 64f 55f
9:36 14 16 mph 1015.4mb 64f 55f
9:30 13 15 mph 1015.3mb 65f 55f
9:24 14 20 mph 1015.4mb 64f 55f
9:18 11 15 mph 1015.4mb 64f 56f
9:12 13 17 mph 1015.4mb 64f 56f
9:06 14 18 mph 1015.3mb 64f 56f
9:00 14 18 mph 1015.3mb 64f 56f
8:54 13 18 mph 1015.3mb 64f 56f
8:48 11 16 mph 1015.2mb 64f 56f
8:42 11 18 mph 1015.2mb 64f 56f
8:36 11 16 mph 1015.2mb 64f 56f
8:30 11 18 mph 1015.3mb 64f 56f
8:24 13 17 mph 1015.2mb 64f 56f
8:18 13 16 mph 1015.3mb 64f 56f
8:12 11 18 mph 1015.2mb 64f 56f
8:06 14 18 mph 1015.1mb 64f 56f
8:00 11 17 mph 1015mb 64f 56f
7:54 14 20 mph 1015mb 64f 57f
7:48 14 17 mph 1015.1mb 64f 56f
7:42 13 22 mph 1014.9mb 64f 56f
7:36 14 23 mph 1014.8mb 64f 56f
7:30 14 16 mph 1014.7mb 64f 56f
7:24 13 20 mph 1014.8mb 64f 57f
7:18 13 21 mph 1014.7mb 64f 57f
7:12 10 18 mph 1014.6mb 64f 57f
7:06 14 18 mph 1014.7mb 64f 57f
7:00 11 17 mph 1014.7mb 64f 57f
6:54 13 17 mph 1014.6mb 64f 57f
6:48 11 18 mph 1014.7mb 64f 57f
6:42 11 15 mph 1014.7mb 64f 57f
6:36 11 16 mph 1014.6mb 64f 57f
6:30 13 20 mph 1014.6mb 64f 57f
6:24 14 17 mph 1014.5mb 64f 57f
6:18 13 15 mph 1014.4mb 64f 57f
6:12 11 16 mph 1014.4mb 64f 58f
6:06 14 22 mph 1014.5mb 64f 57f
6:00 11 15 mph 1014.5mb 64f 57f
5:54 13 15 mph 1014.6mb 64f 57f
5:48 10 15 mph 1014.5mb 64f 57f
5:42 11 18 mph 1014.4mb 64f 57f
5:36 11 15 mph 1014.4mb 64f 57f
5:30 10 16 mph 1014.4mb 64f 57f
5:24 11 14 mph 1014.5mb 64f 57f
5:18 10 13 mph 1014.6mb 64f 57f
5:12 10 14 mph 1014.5mb 64f 57f
5:06 9 14 mph 1014.6mb 64f 57f
5:00 13 16 mph 1014.7mb 64f 57f
4:54 9 14 mph 1014.7mb 64f 57f
4:48 10 15 mph 1014.5mb 64f 57f
4:42 11 15 mph 1014.4mb 64f 57f
4:36 13 18 mph 1014.3mb 64f 57f
4:30 14 18 mph 1014mb 64f 57f
4:24 14 17 mph 1014mb 64f 57f
4:18 13 17 mph 1014.2mb 64f 57f
4:12 13 16 mph 1014.3mb 64f 57f
4:06 13 17 mph 1014.6mb 64f 57f
4:00 14 18 mph 1014.7mb 64f 57f
3:54 15 17 mph 1014.7mb 64f 57f
3:48 11 15 mph 1014.9mb 64f 58f
3:42 13 16 mph 1015mb 64f 58f
3:36 10 15 mph 1015.3mb 64f 58f
3:30 10 13 mph 1015.2mb 64f 58f
3:24 9 13 mph 1015.1mb 64f 58f
3:18 10 16 mph 1015mb 64f 59f
3:12 10 14 mph 1015mb 64f 59f
3:06 9 13 mph 1014.8mb 64f 60f
3:00 10 14 mph 1014.7mb 64f 60f
2:54 13 18 mph 1014.7mb 64f 60f
2:48 10 16 mph 1014.6mb 64f 60f
2:42 9 13 mph 1014.6mb 64f 60f
2:36 10 14 mph 1014.9mb 64f 61f
2:30 10 18 mph 1015mb 64f 61f
2:24 15 21 mph 1014.7mb 64f 62f
2:18 14 18 mph 1014.6mb 64f 62f
2:12 15 20 mph 1014.6mb 64f 62f
2:06 13 17 mph 1014.7mb 64f 62f
2:00 10 16 mph 1014.8mb 64f 62f
1:54 14 22 mph 1014.8mb 64f 63f
1:48 14 18 mph 1014.7mb 65f 63f
1:42 13 20 mph 1014.7mb 64f 63f
1:36 15 18 mph 1014.8mb 65f 64f
1:30 15 18 mph 1014.9mb 65f 64f
1:24 14 16 mph 1015mb 64f 64f
1:18 13 16 mph 1015.2mb 65f 64f
1:12 13 16 mph 1015.4mb 65f 65f
1:06 14 17 mph 1015.5mb 65f 65f
1:00 14 16 mph 1015.5mb 65f 65f
12:54 10 14 mph 1015.6mb 65f 65f
12:48 11 14 mph 1015.5mb 65f 65f
12:42 13 16 mph 1015.3mb 65f 65f
12:36 11 16 mph 1015.3mb 65f 65f
12:30 13 15 mph 1015.5mb 65f 65f
12:24 13 15 mph 1015.5mb 65f 65f
12:18 11 17 mph 1015.6mb 65f 65f
12:12 14 18 mph 1015.7mb 65f 65f
12:06 13 16 mph 1015.8mb 65f 65f
12:00 14 17 mph 1015.8mb 64f 65f
11:54 13 16 mph 1015.9mb 64f 65f
11:48 11 16 mph 1015.8mb 64f 65f
11:42 13 18 mph 1015.8mb 64f 65f
11:36 11 17 mph 1015.9mb 64f 65f
11:30 13 20 mph 1015.8mb 64f 65f
11:24 14 20 mph 1015.8mb 64f 65f
11:18 15 18 mph 1015.8mb 64f 65f
11:12 13 18 mph 1015.8mb 64f 65f
11:06 8 11 mph 1015.7mb 64f 65f
11:00 9 11 mph 1015.7mb 64f 65f
10:54 7 10 mph 1015.8mb 64f 65f
10:48 9 11 mph 1015.7mb 64f 65f
10:42 8 9 mph 1015.7mb 64f 65f
10:36 7 10 mph 1015.8mb 64f 65f
10:30 8 9 mph 1015.8mb 64f 65f
10:24 8 9 mph 1015.8mb 64f 65f
10:18 7 10 mph 1015.8mb 64f 65f
10:12 7 9 mph 1015.6mb 64f 65f
10:06 7 9 mph 1015.6mb 64f 65f
10:00 6 9 mph 1015.5mb 64f 65f
9:54 6 9 mph 1015.5mb 64f 65f
9:48 7 9 mph 1015.5mb 64f 65f
9:42 7 8 mph 1015.6mb 64f 65f
9:36 6 9 mph 1015.7mb 64f 65f
9:30 7 9 mph 1015.7mb 64f 65f
9:24 6 7 mph 1015.8mb 64f 64f
9:18 5 8 mph 1015.8mb 65f 64f
9:12 6 7 mph 1015.7mb 65f 64f
9:06 5 7 mph 1015.7mb 65f 64f
9:00 6 7 mph 1015.7mb 65f 64f
8:54 6 7 mph 1015.7mb 65f 63f
8:48 6 7 mph 1015.9mb 65f 63f
8:42 5 6 mph 1015.9mb 65f 63f
8:36 5 6 mph 1016mb 65f 63f
8:30 5 6 mph 1016mb 65f 62f
8:24 5 6 mph 1016mb 65f 62f
8:18 5 6 mph 1016.1mb 65f 62f
8:12 5 6 mph 1016.1mb 65f 62f
8:06 3 5 mph 1016mb 65f 62f
8:00 5 6 mph 1015.9mb 65f 62f
7:54 5 6 mph 1015.7mb 65f 62f
7:48 5 6 mph 1015.7mb 65f 61f
7:42 5 6 mph 1015.6mb 65f 61f
7:36 6 6 mph 1015.4mb 65f 61f
7:30 5 6 mph 1015.4mb 65f 61f
7:24 6 7 mph 1015.2mb 65f 61f
7:18 6 8 mph 1015mb 65f 61f
7:12 6 7 mph 1014.9mb 65f 61f
7:06 6 7 mph 1014.9mb 65f 61f
7:00 6 7 mph 1014.9mb 65f 61f
6:54 6 7 mph 1014.9mb 65f 60f
6:48 6 7 mph 1014.9mb 65f 60f
6:42 5 6 mph 1014.9mb 65f 60f
6:36 5 6 mph 1015mb 65f 60f
6:30 3 6 mph 1014.8mb 65f 59f
6:24 5 5 mph 1014.8mb 65f 59f
6:18 3 5 mph 1014.7mb 65f 59f
6:12 3 5 mph 1014.6mb 65f 59f
6:06 5 5 mph 1014.6mb 65f 59f
6:00 3 3 mph 1014.7mb 65f 59f
5:54 2 3 mph 1014.7mb 65f 59f
5:48 3 5 mph 1014.5mb 65f 59f
5:42 3 5 mph 1014.4mb 65f 59f
5:36 2 3 mph 1014.3mb 65f 58f
5:30 2 3 mph 1014.5mb 65f 58f
5:24 2 3 mph 1014.5mb 65f 58f
5:18 3 5 mph 1014.6mb 65f 58f
5:12 5 6 mph 1014.6mb 65f 58f
5:06 6 6 mph 1014.7mb 65f 58f
5:00 6 6 mph 1014.6mb 65f 58f
4:54 3 5 mph 1014.6mb 65f 58f
4:48 2 2 mph 1014.8mb 65f 58f
4:42 3 3 mph 1014.7mb 65f 58f
4:36 2 2 mph 1014.8mb 65f 58f
4:30 2 3 mph 1014.8mb 65f 58f
4:24 2 3 mph 1014.8mb 65f 58f
4:18 3 6 mph 1014.8mb 65f 58f
4:12 5 5 mph 1014.6mb 65f 58f
4:06 3 5 mph 1014.6mb 65f 59f
4:00 3 3 mph 1014.6mb 65f 59f
3:54 3 3 mph 1014.5mb 65f 59f
3:48 2 3 mph 1014.5mb 65f 59f
3:42 3 5 mph 1014.5mb 65f 59f
3:36 5 5 mph 1014.5mb 65f 59f
3:30 3 3 mph 1014.5mb 65f 59f
3:24 2 2 mph 1014.5mb 65f 59f
3:18 2 3 mph 1014.6mb 65f 59f
3:12  -  1 mph 1014.5mb 65f 59f
3:06  -  2 mph 1014.4mb 65f 58f
3:00 2 3 mph 1014.4mb 65f 58f
2:54 3 5 mph 1014.3mb 65f 58f
2:48 3 5 mph 1014.3mb 65f 59f
2:42 3 3 mph 1014.3mb 65f 59f
2:36 5 5 mph 1014.5mb 65f 59f
2:30 3 3 mph 1014.5mb 65f 59f
2:24 2 3 mph 1014.6mb 65f 59f
2:18 3 5 mph 1014.5mb 65f 59f
2:12 3 3 mph 1014.6mb 65f 59f
2:06  -  2 mph 1014.7mb 65f 60f
2:00 1 2 mph 1014.8mb 65f 60f
1:54  -  1 mph 1014.8mb 65f 60f
1:48  -  2 mph 1014.9mb 65f -
1:42 2 3 mph 1014.9mb 65f -
1:36 3 3 mph 1014.8mb 65f -
1:30 2 3 mph 1014.8mb 65f 60f
1:24 3 3 mph 1014.9mb 65f 60f
1:18 2 2 mph 1014.8mb 65f 60f
1:12 2 2 mph 1014.8mb 65f 60f
1:06 2 3 mph 1014.7mb 65f 60f
1:00 3 3 mph 1014.6mb 65f 60f
12:54 2 3 mph 1014.6mb 65f 60f
12:48 2 2 mph 1014.6mb 65f 60f
12:42 2 2 mph 1014.5mb 65f 60f
12:36 1 2 mph 1014.5mb 64f 60f
12:30 2 2 mph 1014.4mb 64f 60f
12:24 2 3 mph 1014.5mb 64f 60f
12:18 3 3 mph 1014.5mb 64f 60f
12:12 2 3 mph 1014.4mb 64f 61f
12:06 2 2 mph 1014.5mb 65f 61f
12:00  -  3 mph 1014.6mb 65f 61f
Dom 07/23 11:54 2 3 mph 1014.6mb 65f 61f
11:48 1 2 mph 1014.5mb 65f 61f
11:42  -  2 mph 1014.5mb 65f 61f
11:36 1 2 mph 1014.5mb 65f 61f
11:30 1 2 mph 1014.2mb 65f 61f
11:24  -  2 mph 1014.3mb 65f 61f
11:18  -  2 mph 1014.3mb 65f 60f
11:12 2 3 mph 1014.3mb 65f 60f
11:06 3 3 mph 1014.3mb 65f 61f
11:00 2 3 mph 1014.3mb 65f 61f
10:54 2 3 mph 1014.3mb 65f 61f
10:48 2 2 mph 1014.4mb 65f 62f
10:42  -  2 mph 1014.4mb 65f 62f
10:36  -  1 mph 1014.2mb 65f 62f
10:30  -  2 mph 1014.2mb 65f 61f
10:24 3 3 mph 1014.3mb 65f 61f
10:18 2 3 mph 1014.3mb 65f 62f
10:12 1 2 mph 1014.2mb 65f 63f
10:06  -  1 mph 1014.1mb 65f 63f
10:00 2 2 mph 1014.3mb 65f 63f
9:54 1 5 mph 1014.2mb 65f 63f
9:48 2 3 mph 1014.2mb 65f 63f
9:42 2 3 mph 1014.1mb 65f 63f
9:36 2 5 mph 1014mb 65f 63f
9:30 3 5 mph 1013.9mb 65f 64f
9:24 3 5 mph 1013.9mb 65f 64f
9:18 3 5 mph 1013.9mb 65f 64f
9:12 5 6 mph 1013.8mb 65f 64f
9:06 5 6 mph 1013.7mb 65f 64f
9:00 3 6 mph 1013.6mb 65f 64f
8:54 5 6 mph 1013.8mb 65f 63f
8:48 5 6 mph 1013.7mb 65f 64f
8:42 6 7 mph 1013.5mb 65f 64f
8:36 7 8 mph 1013.4mb 66f 64f
8:30 7 9 mph 1013.1mb 66f 64f
8:24 8 10 mph 1013.2mb 67f 65f
8:18 9 10 mph 1013.2mb 68f 65f
8:12 9 10 mph 1013.1mb 70f 65f
8:06 8 9 mph 1013.1mb 71f 65f
8:00 7 8 mph 1013.1mb 71f 65f
7:54 7 9 mph 1013mb 71f 65f
7:48 8 10 mph 1013mb 71f 65f
7:42 9 10 mph 1012.9mb 71f 65f
7:36 9 10 mph 1012.9mb 71f 65f
7:30 9 11 mph 1012.9mb 71f 65f
7:24 10 13 mph 1012.9mb 71f 65f
7:18 10 13 mph 1012.9mb 71f 65f
7:12 11 14 mph 1012.9mb 71f 65f
7:06 11 14 mph 1012.8mb 71f 65f
7:00 11 14 mph 1012.8mb 71f 66f
6:54 13 14 mph 1012.8mb 71f 66f
6:48 11 14 mph 1012.7mb 71f 66f
6:42 10 13 mph 1012.7mb 71f 66f
6:36 10 13 mph 1012.7mb 71f 66f
6:30 9 13 mph 1012.8mb 71f 67f
6:24 10 11 mph 1012.8mb 71f 66f
6:18 9 11 mph 1012.8mb 71f 67f
6:12 9 10 mph 1012.8mb 71f 67f
6:06 10 11 mph 1012.9mb 71f 67f
6:00 10 13 mph 1012.9mb 71f 67f
5:54 10 13 mph 1012.8mb 71f 67f
5:48 9 13 mph 1012.7mb 70f 67f
5:42 9 13 mph 1012.6mb 70f 67f
5:36 11 13 mph 1012.6mb 70f 67f
5:30 9 11 mph 1012.6mb 70f 67f
5:24 11 13 mph 1012.5mb 70f 67f
5:18 9 11 mph 1012.5mb 70f 67f
5:12 10 11 mph 1012.4mb 70f 67f
5:06 10 14 mph 1012.4mb 70f 67f
5:00 9 11 mph 1012.4mb 70f 67f
4:54 10 14 mph 1012.4mb 69f 67f
4:48 11 14 mph 1012.4mb 69f 66f
4:42 11 13 mph 1012.3mb 69f 67f
4:36 10 13 mph 1012.3mb 69f 67f
4:30 11 14 mph 1012.4mb 69f 67f
4:24 9 13 mph 1012.4mb 69f 67f
4:18 10 13 mph 1012.4mb 68f 67f
4:12 10 14 mph 1012.4mb 68f 68f
4:06 11 14 mph 1012.5mb 68f 67f
4:00 10 14 mph 1012.5mb 68f 67f
3:54 10 11 mph 1012.6mb 68f 67f
3:48 10 13 mph 1012.6mb 67f 67f
3:42 10 11 mph 1012.7mb 67f 67f
3:36 9 11 mph 1012.8mb 67f 67f
3:30 10 11 mph 1012.8mb 67f 67f
3:24 10 11 mph 1012.9mb 67f 67f
3:18 9 10 mph 1012.9mb 67f 67f
3:12 8 9 mph 1013mb 67f 67f
3:06 8 10 mph 1012.8mb 66f 67f
3:00 7 9 mph 1012.8mb 66f 67f
2:54 8 9 mph 1012.9mb 66f 67f
2:48 8 10 mph 1012.9mb 66f 67f
2:42 7 9 mph 1012.8mb 66f 67f
2:36 8 9 mph 1012.8mb 66f 66f
2:30 7 9 mph 1012.9mb 66f 66f
2:24 7 8 mph 1012.9mb 65f 66f
2:18 8 9 mph 1012.9mb 65f 67f
2:12 8 9 mph 1013.1mb 65f 67f
2:06 6 8 mph 1013.1mb 65f 66f
2:00 6 8 mph 1013mb 65f 67f
1:54 6 8 mph 1013mb 65f 66f
1:48 7 9 mph 1013mb 65f 66f
1:42 6 8 mph 1013.1mb 65f 66f
1:36 6 8 mph 1013mb 65f 66f
1:30 7 9 mph 1013mb 65f 66f
1:24 6 7 mph 1013mb 64f 66f
1:18 6 8 mph 1013.2mb 64f 66f
1:12 6 7 mph 1013.1mb 64f 66f
1:06 7 9 mph 1013.2mb 64f 66f
1:00 6 8 mph 1013.1mb 64f 66f
12:54 6 8 mph 1013.1mb 64f 66f
12:48 6 7 mph 1013.1mb 64f 64f
12:42 6 8 mph 1013.1mb 64f 64f
12:36 7 8 mph 1013mb 64f 64f
12:30 7 8 mph 1013mb 64f 65f
12:24 6 8 mph 1013mb 64f 65f
12:18 7 9 mph 1013mb 64f 65f
12:12 7 8 mph 1013mb 64f 65f
12:06 7 9 mph 1013.1mb 64f 65f
12:00 8 9 mph 1013mb 63f 65f
11:54 8 10 mph 1013mb 63f 65f
11:48 7 10 mph 1013mb 63f 65f
11:42 8 10 mph 1013mb 63f 65f
11:36 8 11 mph 1012.9mb 63f 65f
11:30 9 11 mph 1012.9mb 63f 65f
11:24 9 11 mph 1013mb 63f 65f
11:18 8 11 mph 1013mb 63f 65f
11:12 9 11 mph 1013mb 63f 65f
11:06 9 11 mph 1012.9mb 63f 65f
11:00 9 11 mph 1013mb 63f 65f
10:54 9 13 mph 1012.9mb 63f 66f
10:48 9 13 mph 1012.9mb 63f 65f
10:42 9 14 mph 1012.9mb 63f 65f
10:36 10 13 mph 1012.8mb 63f 65f
10:30 10 13 mph 1012.9mb 63f 65f
10:24 10 14 mph 1012.9mb 63f 65f
10:18 9 13 mph 1012.9mb 63f 65f
10:12 10 13 mph 1012.8mb 63f 65f
10:06 9 14 mph 1012.8mb 63f 66f
10:00 10 13 mph 1012.6mb 63f 65f
9:54 9 13 mph 1012.6mb 63f 65f
9:48 10 15 mph 1012.4mb 63f 65f
9:42 10 15 mph 1012.3mb 63f 65f
9:36 10 14 mph 1012.2mb 63f 65f
9:30 10 15 mph 1012.1mb 63f 66f
9:24 11 15 mph 1012.1mb 63f 66f
9:18 10 16 mph 1012mb 63f 66f
9:12 13 15 mph 1011.9mb 63f 66f
9:06 10 15 mph 1012mb 63f 66f
9:00 11 16 mph 1011.8mb 63f 66f
8:54 10 14 mph 1011.9mb 64f 66f
8:48 11 15 mph 1012mb 64f 66f
8:42 13 18 mph 1011.9mb 64f 65f
8:36 13 16 mph 1011.8mb 64f 65f
8:30 11 14 mph 1011.8mb 64f 65f
8:24 10 15 mph 1011.7mb 64f 65f
8:18 14 17 mph 1011.6mb 65f 65f
8:12 14 18 mph 1011.5mb 65f 65f
8:06 13 20 mph 1011.7mb 65f 65f
8:00 10 15 mph 1011.8mb 65f 65f
7:54 13 20 mph 1011.7mb 65f 65f
7:48 10 16 mph 1011.6mb 65f 65f
7:42 9 14 mph 1011.6mb 65f 65f
7:36 11 14 mph 1011.5mb 65f 65f
7:30 9 17 mph 1011.5mb 65f 65f
7:24 13 18 mph 1011.6mb 65f 66f
7:18 7 9 mph 1011.5mb 65f 66f
7:12 9 11 mph 1011.4mb 64f 66f
7:06 8 11 mph 1011.3mb 64f 66f
7:00 8 13 mph 1011.2mb 64f 66f
6:54 8 9 mph 1011.1mb 64f 66f
6:48 7 9 mph 1011.1mb 64f 66f
6:42 8 11 mph 1011mb 64f 66f
6:36 8 9 mph 1011mb 64f 66f
6:30 7 10 mph 1010.8mb 64f 66f
6:24 7 9 mph 1010.7mb 64f 66f
6:18 8 13 mph 1010.6mb 64f 66f
6:12 6 8 mph 1010.5mb 64f 66f
6:06 6 8 mph 1010.4mb 63f 66f
6:00 6 7 mph 1010.3mb 63f 66f
5:54 6 8 mph 1010.4mb 63f 65f
5:48 6 7 mph 1010.4mb 63f 66f
5:42 6 7 mph 1010.3mb 63f 66f
5:36 6 8 mph 1010.2mb 63f 66f
5:30 6 10 mph 1010.1mb 63f 66f
5:24 7 13 mph 1010.1mb 63f 66f
5:18 7 9 mph 1010.1mb 63f 67f
5:12 8 11 mph 1010.1mb 63f 67f
5:06 7 11 mph 1010mb 63f 67f
5:00 9 11 mph 1009.9mb 63f 67f
4:54 9 11 mph 1009.9mb 63f 67f
4:48 7 13 mph 1009.9mb 63f 67f
4:42 7 13 mph 1009.8mb 63f 67f
4:36 7 13 mph 1009.8mb 63f 68f
4:30 9 14 mph 1009.8mb 63f 68f
4:24 8 13 mph 1009.7mb 63f 68f
4:18 9 15 mph 1009.7mb 63f 68f
4:12 9 14 mph 1009.7mb 63f 68f
4:06 9 14 mph 1009.7mb 63f 68f
4:00 9 11 mph 1009.7mb 63f 68f
3:54 10 13 mph 1009.6mb 63f 69f
3:48 11 15 mph 1009.4mb 63f 69f
3:42 10 16 mph 1009.4mb 63f 69f
3:36 11 16 mph 1009.3mb 63f 69f
3:30 14 17 mph 1009.4mb 63f 69f
3:24 9 11 mph 1009.5mb 62f 69f
3:18 8 11 mph 1009.4mb 62f 69f
3:12 11 15 mph 1009.4mb 62f 70f
3:06 11 16 mph 1009.3mb 62f 70f
3:00 11 14 mph 1009.3mb 62f 70f
2:54 9 14 mph 1009.3mb 62f 70f
2:48 9 14 mph 1009.3mb - -
2:42 10 14 mph 1009.3mb - -
2:36 9 13 mph 1009.3mb - -
2:30 6 8 mph 1009.3mb 62f 71f
2:24 6 8 mph 1009.4mb 62f 71f
2:18 6 7 mph 1009.3mb 62f 71f
2:12 5 6 mph 1009.3mb 62f 71f
2:06 3 5 mph 1009.3mb 61f 71f
2:00 5 7 mph 1009.2mb 61f 71f
1:54 6 8 mph 1009.1mb 61f 72f
1:48 7 8 mph 1009.1mb 61f -
1:42 7 9 mph 1009.1mb 61f -
1:36 6 8 mph 1009mb 61f -
1:30 6 8 mph 1009mb 61f 72f
1:24 7 10 mph 1008.9mb 60f 72f
1:18 7 10 mph 1008.9mb 60f 72f
1:12 8 10 mph 1008.9mb 60f 71f
1:06 9 16 mph 1008.7mb 60f 72f
1:00 10 14 mph 1008.7mb 60f 72f
12:54 10 13 mph 1008.6mb 60f 72f
12:48 10 14 mph 1008.6mb 60f 72f
12:42 11 14 mph 1008.6mb 60f 72f
12:36 10 13 mph 1008.6mb 60f 72f
12:30 8 10 mph 1008.7mb 59f 72f
12:24 8 9 mph 1008.8mb 59f 72f
12:18 8 10 mph 1008.8mb 59f 73f
12:12 7 8 mph 1008.7mb 59f 73f
12:06 7 9 mph 1008.6mb 59f 72f
12:00 8 10 mph 1008.5mb 59f 73f
Sáb 07/22 11:54 10 13 mph 1008.6mb 59f 73f
11:48 8 10 mph 1008.6mb 59f 73f
11:42 9 11 mph 1008.6mb 59f 73f
11:36 10 14 mph 1008.6mb 59f 73f
11:30 11 15 mph 1008.5mb 59f 74f
11:24 9 13 mph 1008.5mb 59f 73f
11:18 11 14 mph 1008.5mb 59f 74f
11:12 11 14 mph 1008.5mb 59f 74f
11:06 13 14 mph 1008.5mb 59f 74f
11:00 8 11 mph 1008.5mb 59f 74f
10:54 9 16 mph 1008.6mb 59f 73f
10:48 13 15 mph 1008.7mb 59f 70f
10:42 1 2 mph 1008.4mb 59f 70f
10:36  -  2 mph 1008.4mb 59f 69f
10:30 3 3 mph 1008.5mb 59f 69f
10:24 2 2 mph 1008.4mb 59f 69f
10:18 1 1 mph 1008.3mb 59f 69f
10:12 1 1 mph 1008.3mb 59f 69f
10:06 1 2 mph 1008.3mb 59f 70f
10:00 2 2 mph 1008.3mb 59f 71f
9:54 2 2 mph 1008.3mb 59f 71f
9:48 2 3 mph 1008.2mb 59f 71f
9:42 2 3 mph 1008.2mb 59f 71f
9:36 1 2 mph 1008.2mb 59f 70f
9:30 1 3 mph 1008.3mb 60f 71f
9:24 2 5 mph 1008.3mb 60f 71f
9:18 3 3 mph 1008.3mb 60f 71f
9:12  -  1 mph 1008.4mb 60f 70f
9:06 1 2 mph 1008.4mb 60f 71f
9:00  -  2 mph 1008.4mb 60f 71f
8:54 2 3 mph 1008.4mb 60f 71f
8:48 3 5 mph 1008.3mb 60f 71f
8:42 5 6 mph 1008.2mb 60f 71f
8:36 5 6 mph 1008.1mb 61f 72f
8:30 3 5 mph 1008.2mb 61f 72f
8:24 5 5 mph 1008.2mb 61f 71f
8:18 5 5 mph 1008.2mb 61f 72f
8:12 5 5 mph 1008.2mb 61f 71f
8:06 5 5 mph 1008.2mb 62f 71f
8:00 3 5 mph 1008.2mb 62f 72f
7:54 3 5 mph 1008.2mb 62f 72f
7:48 5 7 mph 1008.1mb 63f 72f
7:42 7 8 mph 1008.1mb 64f 72f
7:36 6 7 mph 1008.1mb 64f 72f
7:30 5 6 mph 1008.1mb 65f 73f
7:24 5 6 mph 1008mb 66f 72f
7:12 6 7 mph 1007.9mb 69f 72f
7:06 5 6 mph 1007.9mb 69f 72f
7:00 6 6 mph 1007.9mb 69f 72f
6:54 3 5 mph 1007.9mb 69f 73f
6:48 5 7 mph 1008mb 69f 74f
6:42 6 8 mph 1008mb 69f 74f
6:36 7 8 mph 1008mb 69f 74f
6:30 7 8 mph 1008mb 69f 74f
6:24 6 9 mph 1008mb 69f 75f
6:18 8 11 mph 1008mb 69f 78f
6:12 10 13 mph 1008.1mb 69f 78f
6:06 11 13 mph 1008.1mb 69f 78f
6:00 9 10 mph 1008.1mb 69f 77f
5:54 8 10 mph 1008.1mb 69f 76f
5:48 8 11 mph 1008.2mb 69f 76f
5:42 9 11 mph 1008.3mb 69f 77f
5:36 8 13 mph 1008.3mb 69f 77f
5:30 10 14 mph 1008.3mb 69f 78f
5:24 9 13 mph 1008.3mb 68f 77f
5:18 10 14 mph 1008.4mb 68f 76f
5:12 14 17 mph 1008.3mb 68f 76f
5:06 10 16 mph 1008.3mb 68f 77f
5:00 13 15 mph 1008.3mb 68f 76f
4:54 11 16 mph 1008.4mb 68f 76f
4:48 14 17 mph 1008.4mb 68f 75f
4:42 15 16 mph 1008.4mb 68f 75f
4:36 11 14 mph 1008.4mb 68f 77f
4:30 6 9 mph 1008.4mb 68f 83f
4:24 7 11 mph 1008.5mb 67f 83f
4:18 9 13 mph 1008.5mb 67f 83f
4:12 6 10 mph 1008.5mb 67f 85f
4:06 7 14 mph 1008.6mb 67f 84f
4:00 6 9 mph 1008.5mb 67f 84f
3:54 6 9 mph 1008.6mb 67f 85f
3:48 9 14 mph 1008.6mb 67f 83f
3:42 10 14 mph 1008.7mb 66f 83f
3:36 9 14 mph 1008.7mb 66f 84f
3:30 7 11 mph 1008.7mb 66f 85f
3:24 9 13 mph 1008.7mb 65f 84f
3:18 9 13 mph 1008.8mb 65f 83f
3:12 9 16 mph 1008.8mb 65f 84f
3:06 5 10 mph 1008.8mb 65f 84f
3:00 6 10 mph 1008.9mb 64f 84f
2:54 5 9 mph 1009.1mb 64f 84f
2:48 6 13 mph 1009.1mb 64f 78f
2:42 8 11 mph 1009.3mb 64f 78f
2:36 6 11 mph 1009.4mb 64f 83f
2:30 9 13 mph 1009.4mb 64f 80f
2:24 7 10 mph 1009.5mb 63f 80f
2:18 11 16 mph 1009.5mb 63f 77f
2:12 13 17 mph 1009.5mb 63f 75f
2:06 10 15 mph 1009.6mb 63f 76f
2:00 13 16 mph 1009.6mb 63f 75f
1:54 15 17 mph 1009.7mb 62f 74f
1:48 15 20 mph 1009.7mb 62f 74f
1:42 16 18 mph 1009.9mb 62f 75f
1:36 13 16 mph 1009.9mb 62f 74f
1:30 14 15 mph 1010mb 62f 75f
1:24 13 15 mph 1010.1mb 61f 75f
1:18 6 15 mph 1010.1mb 61f 74f
1:12 11 14 mph 1010.2mb 61f 75f
1:06 11 14 mph 1010.2mb 61f 74f
1:00 13 14 mph 1010.3mb 61f 74f
12:54 9 11 mph 1010.3mb 60f 74f
12:48 9 11 mph 1010.4mb 60f 74f
12:42 10 13 mph 1010.4mb 60f 74f
12:36 10 11 mph 1010.3mb 60f 74f
12:30 9 11 mph 1010.3mb 60f 74f
12:24 10 10 mph 1010.4mb 60f 74f
12:18 9 10 mph 1010.5mb 60f 74f
12:12 8 11 mph 1010.5mb 60f 73f
12:06 9 10 mph 1010.5mb 60f 73f
12:00 10 13 mph 1010.4mb 60f 73f
11:54 9 10 mph 1010.5mb 60f 74f
11:48 9 11 mph 1010.6mb 59f 74f
11:42 9 10 mph 1010.7mb 59f 74f
11:36 8 9 mph 1010.7mb 59f 75f
11:30 6 7 mph 1010.7mb 59f 76f
11:24 2 6 mph 1010.7mb 59f 76f
11:18 5 6 mph 1010.6mb 59f 76f
11:12 5 6 mph 1010.7mb 60f 76f
11:06 2 7 mph 1010.7mb 60f 76f
11:00 2 7 mph 1010.7mb 60f 77f
10:54 3 6 mph 1010.7mb 60f 77f
10:48 3 7 mph 1010.7mb 60f 77f
10:42 5 7 mph 1010.7mb 59f 76f
10:36 6 7 mph 1010.8mb 59f 76f
10:30 5 7 mph 1010.7mb 59f 76f
10:24  -  5 mph 1010.8mb 59f 76f
10:18 3 5 mph 1010.7mb 59f 76f
10:12 3 6 mph 1010.9mb 59f 76f
10:06 5 6 mph 1010.9mb 59f 76f
10:00 2 6 mph 1010.9mb 59f 76f
9:54 2 6 mph 1011mb 59f 76f
9:48 3 6 mph 1010.9mb 59f 76f
9:42 5 7 mph 1011mb 59f 76f
9:36 5 7 mph 1010.9mb 59f 76f
9:30 3 7 mph 1011mb 59f 75f
9:24 6 8 mph 1011mb 59f 75f
9:18 6 8 mph 1011mb 60f 75f
9:12 5 7 mph 1010.9mb 60f 75f
9:06 3 6 mph 1010.9mb 60f 74f
9:00 5 6 mph 1010.9mb 60f 74f
8:54 6 6 mph 1010.8mb 60f 74f
8:48 6 6 mph 1010.9mb 60f 73f
8:42 5 6 mph 1011mb 60f 73f
8:36 5 6 mph 1011.1mb 60f 73f
8:30 3 5 mph 1011.1mb 61f 74f
8:24 3 6 mph 1011.1mb 61f 74f
8:18 2 5 mph 1011mb 61f 74f
8:12 2 7 mph 1010.9mb 61f 74f
8:06 3 7 mph 1010.7mb 61f 74f
8:00 5 7 mph 1010.7mb 61f 74f
7:54 6 7 mph 1010.6mb 61f 74f
7:48 6 9 mph 1010.5mb 61f 74f
7:42 6 8 mph 1010.4mb 61f 74f
7:36 6 9 mph 1010.4mb 63f 74f
7:30 7 9 mph 1010.3mb 64f 74f
7:24 7 9 mph 1010.3mb 64f 74f
7:18 6 9 mph 1010.4mb 65f 73f
7:12 7 9 mph 1010.2mb 66f 73f
7:06 6 7 mph 1010.2mb 67f 73f
7:00 6 9 mph 1010.2mb 67f 72f
6:54 5 10 mph 1010.2mb 67f 72f